Home > Products > Valid Products > TAF

000
FTUS43 KPAH 232300
TAFCGI
TAF
KCGI 232320Z 2400/2424 VRB05KT P6SM FEW150
     FM241600 17012G20KT P6SM SCT045 SCT120
     FM242200 18014G22KT P6SM VCTS BKN040CB OVC100=



000
FTUS43 KPAH 232300
TAFEVV
TAF
KEVV 232320Z 2400/2424 VRB05KT P6SM SCT150
     FM241800 16010G15KT P6SM FEW050 SCT150=



000
FTUS43 KPAH 232300
TAFPAH
TAF
KPAH 232320Z 2400/2424 VRB05KT P6SM FEW150
     FM241700 17012G18KT P6SM SCT050 SCT120=



000
FTUS43 KPAH 231700
TAFCGI
TAF
KCGI 231720Z 2318/2418 09008KT P6SM FEW100 SCT250
     FM240000 12005KT P6SM FEW150
     FM241500 17012G19KT P6SM FEW045 SCT180=



000
FTUS43 KPAH 231700
TAFEVV
TAF
KEVV 231720Z 2318/2418 04006KT P6SM SCT250
     FM240100 09003KT P6SM SCT150
     FM241500 15009KT P6SM FEW150 SCT250=



000
FTUS43 KPAH 231700
TAFPAH
TAF
KPAH 231720Z 2318/2418 08007KT P6SM FEW250
     FM240100 13003KT P6SM FEW150
     FM241600 17010KT P6SM FEW050 SCT250=



000
FTUS43 KPAH 231100
TAFCGI
TAF
KCGI 231127Z 2312/2412 VRB03KT P6SM SKC
     FM231400 09007KT P6SM SKC
     FM240000 14006KT P6SM SCT120 BKN250=



000
FTUS43 KPAH 231100
TAFPAH
TAF
KPAH 231127Z 2312/2412 VRB03KT P6SM SKC
     FM231400 08007KT P6SM SKC
     FM240000 13006KT P6SM SCT250=



000
FTUS43 KPAH 231100
TAFEVV
TAF
KEVV 231127Z 2312/2412 07005KT P6SM SKC
     FM240200 10006KT P6SM SCT250
     FM240800 12005KT P6SM SCT120=



000
FTUS43 KPAH 230500
TAFPAH
TAF
KPAH 230520Z 2306/2406 VRB03KT P6SM SKC
     FM231500 09007KT P6SM SKC
     FM240000 VRB03KT P6SM SCT250=



000
FTUS43 KPAH 230500
TAFCGI
TAF
KCGI 230520Z 2306/2406 VRB03KT P6SM SKC
     FM231500 11007KT P6SM SKC
     FM240000 VRB03KT P6SM SCT250=



000
FTUS43 KPAH 230500
TAFEVV
TAF
KEVV 230520Z 2306/2406 VRB03KT P6SM SKC
     FM231500 06006KT P6SM SKC
     FM240000 VRB03KT P6SM SCT250=



000
FTUS43 KPAH 222300
TAFPAH
TAF
KPAH 222320Z 2300/2324 35010G16KT P6SM SKC
     FM230100 VRB03KT P6SM SKC
     FM231500 09007KT P6SM SKC=



000
FTUS43 KPAH 222300
TAFEVV
TAF
KEVV 222320Z 2300/2324 34008G15KT P6SM SKC
     FM230100 VRB03KT P6SM SKC
     FM231500 06006KT P6SM SKC=



000
FTUS43 KPAH 222300
TAFCGI
TAF
KCGI 222320Z 2300/2324 36011G18KT P6SM SKC
     FM230100 VRB03KT P6SM SKC
     FM231500 11007KT P6SM SKC=



000
FTUS43 KPAH 221700
TAFCGI
TAF
KCGI 221720Z 2218/2318 36012G20KT P6SM SKC
     FM230100 VRB03KT P6SM SKC
     FM231500 11007KT P6SM SKC=



000
FTUS43 KPAH 221700
TAFPAH
TAF
KPAH 221720Z 2218/2318 35012G20KT P6SM SKC
     FM230100 VRB03KT P6SM SKC
     FM231500 08007KT P6SM SKC=



000
FTUS43 KPAH 221700
TAFEVV
TAF
KEVV 221720Z 2218/2318 34014G22KT P6SM SKC
     FM230100 VRB03KT P6SM SKC
     FM231500 05006KT P6SM SKC=



000
FTUS43 KPAH 221100
TAFCGI
TAF
KCGI 221130Z 2212/2312 36012G18KT P6SM SKC
      TEMPO 2212/2213 35009KT 5SM BR
     FM230100 02003KT P6SM SKC=



000
FTUS43 KPAH 221100
TAFPAH
TAF
KPAH 221130Z 2212/2312 31006KT 5SM BR BKN015
     FM221300 35012G18KT P6SM SKC
     FM230100 03003KT P6SM SKC=



000
FTUS43 KPAH 221100
TAFEVV
TAF
KEVV 221130Z 2212/2312 34012G20KT P6SM SKC
      TEMPO 2212/2213 30007KT 5SM BR
     FM230100 03003KT P6SM SKC=



000
FTUS43 KPAH 220500
TAFCGI
TAF
KCGI 220520Z 2206/2306 24007KT P6SM VCSH SCT035 BKN070
     FM220800 32008KT P6SM BKN035
     FM221400 01012G20KT P6SM SKC
     FM230100 03005KT P6SM SKC=



000
FTUS43 KPAH 220500
TAFEVV
TAF
KEVV 220520Z 2206/2306 24004KT P6SM VCSH SCT035 BKN070
     FM220800 27008KT P6SM BKN035
     FM221000 30009KT P6SM BKN035
     FM221500 35012G20KT P6SM SKC
     FM230100 36004KT P6SM SKC=



000
FTUS43 KPAH 220500
TAFPAH
TAF
KPAH 220520Z 2206/2306 24006KT P6SM VCSH SCT035 BKN070
     FM220900 32008KT P6SM BKN035
     FM221500 01012G20KT P6SM SKC
     FM230100 03005KT P6SM SKC=



000
FTUS43 KPAH 212300
TAFCGI
TAF
KCGI 212320Z 2200/2224 21010KT P6SM -SHRA SCT030 BKN060
      TEMPO 2200/2201 4SM -TSRA BR BKN030CB
     FM220200 24007KT P6SM SCT035 BKN090
     FM220500 25008KT P6SM BKN035
     FM220800 32008KT P6SM BKN035
     FM221400 01012G20KT P6SM SKC=



000
FTUS43 KPAH 212300
TAFPAH
TAF
KPAH 212320Z 2200/2224 23007KT P6SM VCSH SCT035 BKN080
     FM220500 25008KT P6SM BKN035
     FM220800 32008KT P6SM BKN035
     FM221500 01012G20KT P6SM SKC=



000
FTUS43 KPAH 212300
TAFEVV
TAF
KEVV 212320Z 2200/2224 21010KT P6SM -SHRA SCT030 BKN070
      TEMPO 2200/2202 5SM SHRA BR BKN030
     FM220700 27008KT P6SM BKN035
     FM221000 30009KT P6SM BKN035
     FM221500 35012G20KT P6SM SKC=



000
FTUS43 KPAH 211700
TAFPAH
TAF
KPAH 211735Z 2118/2218 24008KT P6SM -SHRA SCT030 BKN060
      TEMPO 2123/2203 5SM SHRA BR BKN030 BKN060
     FM220500 25008KT P6SM BKN035
     FM220800 32008KT P6SM BKN035=



000
FTUS43 KPAH 211700
TAFEVV
TAF
KEVV 211735Z 2118/2218 23011KT P6SM SCT050 BKN080
     FM212000 23008KT P6SM VCSH SCT030 BKN060
      TEMPO 2201/2205 5SM SHRA BR BKN030CB
     FM220700 27008KT P6SM BKN035
     FM221000 30009KT P6SM BKN035=



000
FTUS43 KPAH 211700
TAFCGI
TAF
KCGI 211735Z 2118/2218 25008KT P6SM -SHRA SCT030 BKN060
      TEMPO 2123/2203 5SM SHRA BR BKN030 BKN060
     FM220500 25008KT P6SM BKN035
     FM220800 32008KT P6SM BKN035=



000
FTUS43 KPAH 211600 AAA
TAFCGI
TAF AMD
KCGI 211604Z 2116/2212 24008KT P6SM -SHRA SCT030 BKN060
      TEMPO 2122/2202 4SM -SHRA BR BKN030CB
     FM220800 32008KT 5SM BR BKN035=



000
FTUS43 KPAH 211100
TAFCGI
TAF
KCGI 211120Z 2112/2212 00000KT P6SM SCT070 BKN250
     FM211400 22006KT P6SM SCT050 BKN080
     FM211700 24008KT P6SM VCSH SCT030 BKN060 PROB30 2122/2204 4SM
      -TSRA BR BKN030CB
     FM220800 32008KT 5SM BR BKN035=



000
FTUS43 KPAH 211100
TAFPAH
TAF
KPAH 211120Z 2112/2212 VRB03KT P6SM SCT070 BKN250
     FM211500 23008KT P6SM SCT050 BKN080
     FM211800 23008KT P6SM VCSH SCT030 BKN060 PROB30 2123/2205 4SM
      -TSRA BR BKN030CB
     FM220900 29008KT P6SM BKN035=



000
FTUS43 KPAH 211100
TAFEVV
TAF
KEVV 211120Z 2112/2212 VRB03KT P6SM SCT070 BKN250
     FM211800 23008KT P6SM SCT050 BKN080
     FM212000 24008KT P6SM VCSH SCT030 BKN060 PROB30 2200/2206 4SM
      -TSRA BR BKN030CB
     FM221000 30009KT P6SM BKN035=



000
FTUS43 KPAH 210500
TAFEVV
TAF
KEVV 210520Z 2106/2206 VRB03KT P6SM SCT150 BKN250
     FM211400 19006KT P6SM SCT050 BKN080
     FM211800 20008KT P6SM SCT030 BKN060
     FM220200 23007KT 4SM -TSRA BR BKN030CB=



000
FTUS43 KPAH 210500
TAFPAH
TAF
KPAH 210520Z 2106/2206 VRB03KT P6SM SCT150 BKN250
     FM211400 19006KT P6SM SCT050 BKN080
     FM211800 20008KT P6SM SCT030 BKN060
     FM220100 23007KT 4SM -TSRA BR BKN030CB=



000
FTUS43 KPAH 210500
TAFCGI
TAF
KCGI 210520Z 2106/2206 VRB03KT P6SM SCT150 BKN250
     FM211400 19006KT P6SM SCT050 BKN080
     FM211800 20008KT P6SM SCT030 BKN060
     FM220000 24007KT 4SM -TSRA BR BKN030CB=



    US Dept of Commerce
    National Oceanic and Atmospheric Administration
    National Weather Service
    1325 East West Highway
    Silver Spring, MD 20910
    Page Author: NWS Internet Services Team
Disclaimer
Information Quality
Credits
Glossary
Privacy Policy
Freedom of Information Act (FOIA)
About Us
Career Opportunities